Adriatic Sea — WDB5553 — position and weather

sailwx.info

Track history (hours):
 
Tides and Currents Weather Stations Pressure Air Temp Water Temp Dewpoint Dewpoint Depression Visibility Wind Speed Wind Dir Waves Ship Positions

Adriatic Sea

Owner: Kirby Offshore Marine, LLC, Seattle, WA. More information available from US FCC via Universal Licensing System and Coast Guard Vessel Documentation Center.

Last reported at 2015-Apr-19 09:17 UTC. Time now 2015-Apr-19 21:00 UTC.
Position N 41°42' W 125°00'.

Length 42 m; draft 5.3 m.

Type: Tug. MMSI: 366910890.

Date/timePositionNaut miles runAvg speedWind from/ knotsBaromVisibWave heightAir tempDewpointWater temp
2015-Apr-19 09:17N 41°42' W 125°00'5 6.2
2015-Apr-19 08:31N 41°46' W 125°00'156 6.7
2015-Apr-18 09:08N 44°23' W 125°03'4 6.8
2015-Apr-18 08:31N 44°27' W 125°02'7 6.8
2015-Apr-18 07:33N 44°33' W 125°01'7 6.7
2015-Apr-18 06:33N 44°40' W 125°01'6 6.4
2015-Apr-18 05:33N 44°46' W 125°01'6 6.3
2015-Apr-18 04:33N 44°53' W 125°00'6 6.3
2015-Apr-18 03:33N 44°59' W 125°00'6 6.2
2015-Apr-18 02:33N 45°05' W 125°00'7 6.0
2015-Apr-18 01:26N 45°12' W 125°00'6 6.4
2015-Apr-18 00:26N 45°18' W 125°01'6 6.4
2015-Apr-17 23:32N 45°24' W 125°01'6 6.2
2015-Apr-17 22:33N 45°30' W 125°02'6 6.2
2015-Apr-17 21:33N 45°36' W 125°02'6 6.1
2015-Apr-17 20:33N 45°42' W 125°02'6 6.3
2015-Apr-17 19:33N 45°49' W 125°02'6 6.4
2015-Apr-17 18:33N 45°55' W 125°03'6 6.3
2015-Apr-17 17:33N 46°01' W 125°03'6 5.9
2015-Apr-17 16:33N 46°07' W 125°03'6 6.3
2015-Apr-17 15:33N 46°14' W 125°03'6 6.4
2015-Apr-17 14:33N 46°20' W 125°03'6 6.4
2015-Apr-17 13:33N 46°26' W 125°03'6 6.2
2015-Apr-17 12:33N 46°33' W 125°04'6 6.2
2015-Apr-17 11:33N 46°39' W 125°04'6 6.2
2015-Apr-17 10:31N 46°45' W 125°05'6 6.4
2015-Apr-17 09:33N 46°51' W 125°05'7 6.4
2015-Apr-17 08:25N 46°59' W 125°05'5 6.3
2015-Apr-17 07:33N 47°04' W 125°06'6 6.1
2015-Apr-17 06:34N 47°10' W 125°06'6 6.1
2015-Apr-17 05:33N 47°16' W 125°06'7 6.3
2015-Apr-17 04:31N 47°23' W 125°07'6 6.3
2015-Apr-17 03:33N 47°29' W 125°08'7 5.9
2015-Apr-17 02:23N 47°36' W 125°11'28 5.8
2015-Apr-16 21:32N 48°04' W 125°09'6 5.7
2015-Apr-16 20:33N 48°09' W 125°06'6 5.5
2015-Apr-16 19:33N 48°14' W 125°03'5 5.1
2015-Apr-16 18:33N 48°19' W 124°60'5 5.3
2015-Apr-16 17:33N 48°24' W 124°57'5 5.1
2015-Apr-16 16:33N 48°26' W 124°50'6 5.7
2015-Apr-16 15:33N 48°26' W 124°42'7 6.9
2015-Apr-16 14:33N 48°23' W 124°32'8 7.8
2015-Apr-16 13:33N 48°20' W 124°21'8 7.8
2015-Apr-16 12:33N 48°16' W 124°11'7 7.1
2015-Apr-16 11:32N 48°13' W 124°01'7 6.8
2015-Apr-16 10:33N 48°12' W 123°52'6 6.2
2015-Apr-16 09:33N 48°12' W 123°42'5 5.0
2015-Apr-16 08:33N 48°12' W 123°35'5 4.9
2015-Apr-16 07:33N 48°12' W 123°27'5 5.0
2015-Apr-16 06:33N 48°12' W 123°20'7 5.7
2015-Apr-16 05:16N 48°15' W 123°10'5 6.3
2015-Apr-16 04:32N 48°18' W 123°04'7 7.0
2015-Apr-16 03:32N 48°22' W 122°55'8 7.7
2015-Apr-16 02:32N 48°26' W 122°46'8 8.6
2015-Apr-16 01:33N 48°35' W 122°45'7 7.5
2015-Apr-16 00:33N 48°42' W 122°45'6 6.3
2015-Apr-15 23:33N 48°48' W 122°44'1 0.1
2015-Apr-15 01:03N 48°50' W 122°43'1 1.6
2015-Apr-15 00:33N 48°49' W 122°44'2 2.3
2015-Apr-14 23:33N 48°50' W 122°46'1 1.2
2015-Apr-14 22:33N 48°51' W 122°47'1 0.9
2015-Apr-14 21:33N 48°51' W 122°47'2 1.6
2015-Apr-14 20:33N 48°49' W 122°45'1 0.6
2015-Apr-14 19:30N 48°49' W 122°45'5 5.0
2015-Apr-14 18:33N 48°44' W 122°45'5 5.0
2015-Apr-14 17:33N 48°39' W 122°43'5 4.6
2015-Apr-14 16:33N 48°35' W 122°45'4 4.4
2015-Apr-14 15:33N 48°31' W 122°44'5 4.6
2015-Apr-14 14:33N 48°26' W 122°44'6 6.2
2015-Apr-14 13:33N 48°20' W 122°46'7 6.5
2015-Apr-14 12:33N 48°14' W 122°48'8 8.5
2015-Apr-14 11:33N 48°07' W 122°40'9 8.9
2015-Apr-14 10:33N 47°59' W 122°35'8 7.7
2015-Apr-14 09:34N 47°53' W 122°28'8 7.8
2015-Apr-14 08:33N 47°45' W 122°26'8 7.7
2015-Apr-14 07:33N 47°38' W 122°27'8 7.9
2015-Apr-14 06:33N 47°30' W 122°25'8 7.6
2015-Apr-14 05:33N 47°23' W 122°21'7 6.9
2015-Apr-14 04:33N 47°17' W 122°27'2 1.9
2015-Apr-14 03:33N 47°16' W 122°26'0 0.0
2015-Apr-14 02:34N 47°16' W 122°26'0 0.0
2015-Apr-14 01:33N 47°16' W 122°26'0 0.0
2015-Apr-14 00:33N 47°16' W 122°26'0 0.0
2015-Apr-13 23:33N 47°15' W 122°26'0 0.0
2015-Apr-13 22:34N 47°16' W 122°26'0 0.0
2015-Apr-13 21:33N 47°16' W 122°26'0 0.0
2015-Apr-13 20:33N 47°16' W 122°26'0 0.0
2015-Apr-13 19:33N 47°15' W 122°26'0 0.0
2015-Apr-13 18:33N 47°15' W 122°26'0 0.0
2015-Apr-13 17:33N 47°16' W 122°26'0 0.0
2015-Apr-13 16:33N 47°16' W 122°26'0 0.0
2015-Apr-13 15:33N 47°15' W 122°26'0 0.0
2015-Apr-13 14:33N 47°16' W 122°26'4 3.7
2015-Apr-13 13:33N 47°19' W 122°28'4 4.2
2015-Apr-13 12:34N 47°22' W 122°24'4 3.7
2015-Apr-13 11:34N 47°26' W 122°24'6 6.2
2015-Apr-13 10:33N 47°32' W 122°27'7 6.8
2015-Apr-13 09:33N 47°39' W 122°28'7 6.7
2015-Apr-13 08:33N 47°45' W 122°27'7 7.4
2015-Apr-13 07:33N 47°53' W 122°29'8 7.7
2015-Apr-13 06:33N 47°59' W 122°36'8 8.1
2015-Apr-13 05:32N 48°07' W 122°40'11 8.2
2015-Apr-13 04:14N 48°16' W 122°48'5 7.6
2015-Apr-13 03:31N 48°21' W 122°46'7 7.3
2015-Apr-13 02:33N 48°28' W 122°45'8 7.8
2015-Apr-13 01:33N 48°36' W 122°45'8 7.8
2015-Apr-13 00:33N 48°44' W 122°46'6 3.0
2015-Apr-12 22:29N 48°50' W 122°43'0 0.0
2015-Apr-12 15:04N 48°49' W 122°43'0 0.0
2015-Apr-12 14:05N 48°49' W 122°43'0 0.1
2015-Apr-12 13:21N 48°50' W 122°43'4 4.7
2015-Apr-12 12:33N 48°46' W 122°46'7 7.2
2015-Apr-12 11:33N 48°40' W 122°40'5 4.8
2015-Apr-12 10:33N 48°35' W 122°38'0 0.1
2015-Apr-12 09:33N 48°35' W 122°38'0 0.1
2015-Apr-12 08:33N 48°35' W 122°38'0 0.1
2015-Apr-12 07:33N 48°35' W 122°38'0 0.0
2015-Apr-12 06:27N 48°35' W 122°38'0 0.0
2015-Apr-12 05:30N 48°35' W 122°38'0 0.0
2015-Apr-12 04:33N 48°35' W 122°38'0 0.0
2015-Apr-12 03:33N 48°35' W 122°38'0 0.0
2015-Apr-12 02:30N 48°35' W 122°38'0 0.0
2015-Apr-12 01:06N 48°35' W 122°38'0 0.0
2015-Apr-12 00:21N 48°35' W 122°38'0 0.0
2015-Apr-11 23:30N 48°35' W 122°38'0 0.0
2015-Apr-11 22:33N 48°35' W 122°38'0 0.0
2015-Apr-11 21:30N 48°35' W 122°38'0 0.1
2015-Apr-11 20:33N 48°35' W 122°38'0 0.0
2015-Apr-11 19:27N 48°35' W 122°38'0 0.0
2015-Apr-11 18:12N 48°35' W 122°38'0 0.1
2015-Apr-11 17:15N 48°35' W 122°38'0 0.1
2015-Apr-11 16:30N 48°35' W 122°38'0 0.1
2015-Apr-11 15:27N 48°35' W 122°38'0 0.1
2015-Apr-11 14:33N 48°35' W 122°38'0 0.0
2015-Apr-11 13:33N 48°35' W 122°38'0 0.1
2015-Apr-11 12:30N 48°35' W 122°38'0 0.1
2015-Apr-11 11:30N 48°35' W 122°38'0 0.1
2015-Apr-11 10:30N 48°35' W 122°38'0 0.0
2015-Apr-11 09:33N 48°35' W 122°38'0 0.0
2015-Apr-11 08:30N 48°35' W 122°38'0 0.0
2015-Apr-11 07:15N 48°35' W 122°38'0 0.1
2015-Apr-11 06:27N 48°35' W 122°38'0 0.1
2015-Apr-11 05:30N 48°35' W 122°38'0 0.0
2015-Apr-11 04:29N 48°35' W 122°38'0 0.0
2015-Apr-11 03:23N 48°35' W 122°38'0 0.0
2015-Apr-11 02:29N 48°35' W 122°38'0 0.0
2015-Apr-11 01:29N 48°35' W 122°38'0 0.0
2015-Apr-11 00:26N 48°35' W 122°38'0 0.1
2015-Apr-10 23:33N 48°35' W 122°38'5 4.3
2015-Apr-10 22:31N 48°39' W 122°34'5 4.4
2015-Apr-10 21:24N 48°44' W 122°32'0 0.0
2015-Apr-10 20:22N 48°44' W 122°32'0 0.0
2015-Apr-10 19:19N 48°44' W 122°32'0 0.0
2015-Apr-10 17:04N 48°44' W 122°32'0 0.2
2015-Apr-10 16:31N 48°44' W 122°32'0 0.1
2015-Apr-10 15:22N 48°44' W 122°32'0 0.1
2015-Apr-10 14:28N 48°44' W 122°32'0 0.0
2015-Apr-10 13:22N 48°44' W 122°32'0 0.0
2015-Apr-10 12:28N 48°44' W 122°32'0 0.0
2015-Apr-10 11:31N 48°44' W 122°32'0 0.1
2015-Apr-10 10:31N 48°44' W 122°32'0 0.0
2015-Apr-10 09:31N 48°44' W 122°32'0 0.0
2015-Apr-10 07:28N 48°44' W 122°32'0 0.0
2015-Apr-10 06:28N 48°44' W 122°32'0 0.0
2015-Apr-10 04:16N 48°44' W 122°32'0 0.0
2015-Apr-10 00:31N 48°44' W 122°32'0 0.0
2015-Apr-09 23:21N 48°44' W 122°32'0 0.0
2015-Apr-09 22:30N 48°44' W 122°32'0 0.1
2015-Apr-09 21:33N 48°44' W 122°32'0 0.0
2015-Apr-09 20:24N 48°44' W 122°32'0 0.0
2015-Apr-09 19:24N 48°44' W 122°32'0 0.0
2015-Apr-09 17:04N 48°44' W 122°32'0 0.0
2015-Apr-09 16:06N 48°44' W 122°32'0 0.0
2015-Apr-09 15:09N 48°44' W 122°32'0 0.0
2015-Apr-09 14:18N 48°44' W 122°32'0 0.0
2015-Apr-09 13:27N 48°44' W 122°32'0 0.0
2015-Apr-09 10:12N 48°44' W 122°32'  
Track history (hours):
 
Tides and Currents Weather Stations Pressure Air Temp Water Temp Dewpoint Dewpoint Depression Visibility Wind Speed Wind Dir Waves Ship Positions

Adriatic Sea

Owner: Kirby Offshore Marine, LLC, Seattle, WA. More information available from US FCC via Universal Licensing System and Coast Guard Vessel Documentation Center.

Last reported at 2015-Apr-19 09:17 UTC. Time now 2015-Apr-19 21:00 UTC.
Position N 41°42' W 125°00'.

Length 42 m; draft 5.3 m.

Type: Tug. MMSI: 366910890.

Date/timePositionNaut miles runAvg speedWind from/ knotsBaromVisibWave heightAir tempDewpointWater temp
2015-Apr-19 09:17N 41°42' W 125°00'5 6.2
2015-Apr-19 08:31N 41°46' W 125°00'156 6.7
2015-Apr-18 09:08N 44°23' W 125°03'4 6.8
2015-Apr-18 08:31N 44°27' W 125°02'7 6.8
2015-Apr-18 07:33N 44°33' W 125°01'7 6.7
2015-Apr-18 06:33N 44°40' W 125°01'6 6.4
2015-Apr-18 05:33N 44°46' W 125°01'6 6.3
2015-Apr-18 04:33N 44°53' W 125°00'6 6.3
2015-Apr-18 03:33N 44°59' W 125°00'6 6.2
2015-Apr-18 02:33N 45°05' W 125°00'7 6.0
2015-Apr-18 01:26N 45°12' W 125°00'6 6.4
2015-Apr-18 00:26N 45°18' W 125°01'6 6.4
2015-Apr-17 23:32N 45°24' W 125°01'6 6.2
2015-Apr-17 22:33N 45°30' W 125°02'6 6.2
2015-Apr-17 21:33N 45°36' W 125°02'6 6.1
2015-Apr-17 20:33N 45°42' W 125°02'6 6.3
2015-Apr-17 19:33N 45°49' W 125°02'6 6.4
2015-Apr-17 18:33N 45°55' W 125°03'6 6.3
2015-Apr-17 17:33N 46°01' W 125°03'6 5.9
2015-Apr-17 16:33N 46°07' W 125°03'6 6.3
2015-Apr-17 15:33N 46°14' W 125°03'6 6.4
2015-Apr-17 14:33N 46°20' W 125°03'6 6.4
2015-Apr-17 13:33N 46°26' W 125°03'6 6.2
2015-Apr-17 12:33N 46°33' W 125°04'6 6.2
2015-Apr-17 11:33N 46°39' W 125°04'6 6.2
2015-Apr-17 10:31N 46°45' W 125°05'6 6.4
2015-Apr-17 09:33N 46°51' W 125°05'7 6.4
2015-Apr-17 08:25N 46°59' W 125°05'5 6.3
2015-Apr-17 07:33N 47°04' W 125°06'6 6.1
2015-Apr-17 06:34N 47°10' W 125°06'6 6.1
2015-Apr-17 05:33N 47°16' W 125°06'7 6.3
2015-Apr-17 04:31N 47°23' W 125°07'6 6.3
2015-Apr-17 03:33N 47°29' W 125°08'7 5.9
2015-Apr-17 02:23N 47°36' W 125°11'28 5.8
2015-Apr-16 21:32N 48°04' W 125°09'6 5.7
2015-Apr-16 20:33N 48°09' W 125°06'6 5.5
2015-Apr-16 19:33N 48°14' W 125°03'5 5.1
2015-Apr-16 18:33N 48°19' W 124°60'5 5.3
2015-Apr-16 17:33N 48°24' W 124°57'5 5.1
2015-Apr-16 16:33N 48°26' W 124°50'6 5.7
2015-Apr-16 15:33N 48°26' W 124°42'7 6.9
2015-Apr-16 14:33N 48°23' W 124°32'8 7.8
2015-Apr-16 13:33N 48°20' W 124°21'8 7.8
2015-Apr-16 12:33N 48°16' W 124°11'7 7.1
2015-Apr-16 11:32N 48°13' W 124°01'7 6.8
2015-Apr-16 10:33N 48°12' W 123°52'6 6.2
2015-Apr-16 09:33N 48°12' W 123°42'5 5.0
2015-Apr-16 08:33N 48°12' W 123°35'5 4.9
2015-Apr-16 07:33N 48°12' W 123°27'5 5.0
2015-Apr-16 06:33N 48°12' W 123°20'7 5.7
2015-Apr-16 05:16N 48°15' W 123°10'5 6.3
2015-Apr-16 04:32N 48°18' W 123°04'7 7.0
2015-Apr-16 03:32N 48°22' W 122°55'8 7.7
2015-Apr-16 02:32N 48°26' W 122°46'8 8.6
2015-Apr-16 01:33N 48°35' W 122°45'7 7.5
2015-Apr-16 00:33N 48°42' W 122°45'6 6.3
2015-Apr-15 23:33N 48°48' W 122°44'1 0.1
2015-Apr-15 01:03N 48°50' W 122°43'1 1.6
2015-Apr-15 00:33N 48°49' W 122°44'2 2.3
2015-Apr-14 23:33N 48°50' W 122°46'1 1.2
2015-Apr-14 22:33N 48°51' W 122°47'1 0.9
2015-Apr-14 21:33N 48°51' W 122°47'2 1.6
2015-Apr-14 20:33N 48°49' W 122°45'1 0.6
2015-Apr-14 19:30N 48°49' W 122°45'5 5.0
2015-Apr-14 18:33N 48°44' W 122°45'5 5.0
2015-Apr-14 17:33N 48°39' W 122°43'5 4.6
2015-Apr-14 16:33N 48°35' W 122°45'4 4.4
2015-Apr-14 15:33N 48°31' W 122°44'5 4.6
2015-Apr-14 14:33N 48°26' W 122°44'6 6.2
2015-Apr-14 13:33N 48°20' W 122°46'7 6.5
2015-Apr-14 12:33N 48°14' W 122°48'8 8.5
2015-Apr-14 11:33N 48°07' W 122°40'9 8.9
2015-Apr-14 10:33N 47°59' W 122°35'8 7.7
2015-Apr-14 09:34N 47°53' W 122°28'8 7.8
2015-Apr-14 08:33N 47°45' W 122°26'8 7.7
2015-Apr-14 07:33N 47°38' W 122°27'8 7.9
2015-Apr-14 06:33N 47°30' W 122°25'8 7.6
2015-Apr-14 05:33N 47°23' W 122°21'7 6.9
2015-Apr-14 04:33N 47°17' W 122°27'2 1.9
2015-Apr-14 03:33N 47°16' W 122°26'0 0.0
2015-Apr-14 02:34N 47°16' W 122°26'0 0.0
2015-Apr-14 01:33N 47°16' W 122°26'0 0.0
2015-Apr-14 00:33N 47°16' W 122°26'0 0.0
2015-Apr-13 23:33N 47°15' W 122°26'0 0.0
2015-Apr-13 22:34N 47°16' W 122°26'0 0.0
2015-Apr-13 21:33N 47°16' W 122°26'0 0.0
2015-Apr-13 20:33N 47°16' W 122°26'0 0.0
2015-Apr-13 19:33N 47°15' W 122°26'0 0.0
2015-Apr-13 18:33N 47°15' W 122°26'0 0.0
2015-Apr-13 17:33N 47°16' W 122°26'0 0.0
2015-Apr-13 16:33N 47°16' W 122°26'0 0.0
2015-Apr-13 15:33N 47°15' W 122°26'0 0.0
2015-Apr-13 14:33N 47°16' W 122°26'4 3.7
2015-Apr-13 13:33N 47°19' W 122°28'4 4.2
2015-Apr-13 12:34N 47°22' W 122°24'4 3.7
2015-Apr-13 11:34N 47°26' W 122°24'6 6.2
2015-Apr-13 10:33N 47°32' W 122°27'7 6.8
2015-Apr-13 09:33N 47°39' W 122°28'7 6.7
2015-Apr-13 08:33N 47°45' W 122°27'7 7.4
2015-Apr-13 07:33N 47°53' W 122°29'8 7.7
2015-Apr-13 06:33N 47°59' W 122°36'8 8.1
2015-Apr-13 05:32N 48°07' W 122°40'11 8.2
2015-Apr-13 04:14N 48°16' W 122°48'5 7.6
2015-Apr-13 03:31N 48°21' W 122°46'7 7.3
2015-Apr-13 02:33N 48°28' W 122°45'8 7.8
2015-Apr-13 01:33N 48°36' W 122°45'8 7.8
2015-Apr-13 00:33N 48°44' W 122°46'6 3.0
2015-Apr-12 22:29N 48°50' W 122°43'0 0.0
2015-Apr-12 15:04N 48°49' W 122°43'0 0.0
2015-Apr-12 14:05N 48°49' W 122°43'0 0.1
2015-Apr-12 13:21N 48°50' W 122°43'4 4.7
2015-Apr-12 12:33N 48°46' W 122°46'7 7.2
2015-Apr-12 11:33N 48°40' W 122°40'5 4.8
2015-Apr-12 10:33N 48°35' W 122°38'0 0.1
2015-Apr-12 09:33N 48°35' W 122°38'0 0.1
2015-Apr-12 08:33N 48°35' W 122°38'0 0.1
2015-Apr-12 07:33N 48°35' W 122°38'0 0.0
2015-Apr-12 06:27N 48°35' W 122°38'0 0.0
2015-Apr-12 05:30N 48°35' W 122°38'0 0.0
2015-Apr-12 04:33N 48°35' W 122°38'0 0.0
2015-Apr-12 03:33N 48°35' W 122°38'0 0.0
2015-Apr-12 02:30N 48°35' W 122°38'0 0.0
2015-Apr-12 01:06N 48°35' W 122°38'0 0.0
2015-Apr-12 00:21N 48°35' W 122°38'0 0.0
2015-Apr-11 23:30N 48°35' W 122°38'0 0.0
2015-Apr-11 22:33N 48°35' W 122°38'0 0.0
2015-Apr-11 21:30N 48°35' W 122°38'0 0.1
2015-Apr-11 20:33N 48°35' W 122°38'0 0.0
2015-Apr-11 19:27N 48°35' W 122°38'0 0.0
2015-Apr-11 18:12N 48°35' W 122°38'0 0.1
2015-Apr-11 17:15N 48°35' W 122°38'0 0.1
2015-Apr-11 16:30N 48°35' W 122°38'0 0.1
2015-Apr-11 15:27N 48°35' W 122°38'0 0.1
2015-Apr-11 14:33N 48°35' W 122°38'0 0.0
2015-Apr-11 13:33N 48°35' W 122°38'0 0.1
2015-Apr-11 12:30N 48°35' W 122°38'0 0.1
2015-Apr-11 11:30N 48°35' W 122°38'0 0.1
2015-Apr-11 10:30N 48°35' W 122°38'0 0.0
2015-Apr-11 09:33N 48°35' W 122°38'0 0.0
2015-Apr-11 08:30N 48°35' W 122°38'0 0.0
2015-Apr-11 07:15N 48°35' W 122°38'0 0.1
2015-Apr-11 06:27N 48°35' W 122°38'0 0.1
2015-Apr-11 05:30N 48°35' W 122°38'0 0.0
2015-Apr-11 04:29N 48°35' W 122°38'0 0.0
2015-Apr-11 03:23N 48°35' W 122°38'0 0.0
2015-Apr-11 02:29N 48°35' W 122°38'0 0.0
2015-Apr-11 01:29N 48°35' W 122°38'0 0.0
2015-Apr-11 00:26N 48°35' W 122°38'0 0.1
2015-Apr-10 23:33N 48°35' W 122°38'5 4.3
2015-Apr-10 22:31N 48°39' W 122°34'5 4.4
2015-Apr-10 21:24N 48°44' W 122°32'0 0.0
2015-Apr-10 20:22N 48°44' W 122°32'0 0.0
2015-Apr-10 19:19N 48°44' W 122°32'0 0.0
2015-Apr-10 17:04N 48°44' W 122°32'0 0.2
2015-Apr-10 16:31N 48°44' W 122°32'0 0.1
2015-Apr-10 15:22N 48°44' W 122°32'0 0.1
2015-Apr-10 14:28N 48°44' W 122°32'0 0.0
2015-Apr-10 13:22N 48°44' W 122°32'0 0.0
2015-Apr-10 12:28N 48°44' W 122°32'0 0.0
2015-Apr-10 11:31N 48°44' W 122°32'0 0.1
2015-Apr-10 10:31N 48°44' W 122°32'0 0.0
2015-Apr-10 09:31N 48°44' W 122°32'0 0.0
2015-Apr-10 07:28N 48°44' W 122°32'0 0.0
2015-Apr-10 06:28N 48°44' W 122°32'0 0.0
2015-Apr-10 04:16N 48°44' W 122°32'0 0.0
2015-Apr-10 00:31N 48°44' W 122°32'0 0.0
2015-Apr-09 23:21N 48°44' W 122°32'0 0.0
2015-Apr-09 22:30N 48°44' W 122°32'0 0.1
2015-Apr-09 21:33N 48°44' W 122°32'0 0.0
2015-Apr-09 20:24N 48°44' W 122°32'0 0.0
2015-Apr-09 19:24N 48°44' W 122°32'0 0.0
2015-Apr-09 17:04N 48°44' W 122°32'0 0.0
2015-Apr-09 16:06N 48°44' W 122°32'0 0.0
2015-Apr-09 15:09N 48°44' W 122°32'0 0.0
2015-Apr-09 14:18N 48°44' W 122°32'0 0.0
2015-Apr-09 13:27N 48°44' W 122°32'0 0.0
2015-Apr-09 10:12N 48°44' W 122°32'  

Dump ship's entire track history